Time;durP1;ratioP1;P1;durP2;ratioP2;P2;SDS_P1;SDS_P2;PMS_P1;PMS_P2;Temp;Humidity;BMP_temperature;BMP_pressure;BME280_temperature;BME280_humidity;BME280_pressure;Samples;Min_cycle;Max_cycle;Signal;HPM_P1;HPM_P2
2022/06/04 00:01:37;;;;;;;7.75;4.18;;;;;;;17.22;51.54;100284.47;30993937;28;98572;-67
2022/06/04 00:16:38;;;;;;;6.15;4.78;;;;;;;17.00;52.09;100263.19;30991760;28;97802;-67
2022/06/04 00:31:38;;;;;;;5.80;3.70;;;;;;;16.87;52.50;100234.44;30990661;28;96746;-70
2022/06/04 00:46:42;;;;;;;5.85;4.45;;;;;;;16.79;52.88;100218.50;30989722;28;96809;-67
2022/06/04 01:02:19;;;;;;;10.97;4.63;;;;;;;16.68;53.38;100208.41;30987307;28;96674;-66
2022/06/04 01:17:27;;;;;;;6.03;4.43;;;;;;;16.66;53.58;100199.72;30986120;28;96687;-67
2022/06/04 01:32:49;;;;;;;6.07;4.70;;;;;;;16.56;54.03;100190.19;30983616;28;98458;-67
2022/06/04 01:47:51;;;;;;;7.40;4.90;;;;;;;16.62;54.08;100177.81;30983552;28;96706;-67
2022/06/04 02:03:21;;;;;;;5.37;4.17;;;;;;;16.66;54.34;100199.72;30982531;28;96798;-68
2022/06/04 02:18:23;;;;;;;6.47;4.87;;;;;;;16.46;54.47;100227.47;30979727;28;97056;-73
2022/06/04 02:33:39;;;;;;;8.37;5.30;;;;;;;16.33;55.11;100187.13;30979206;28;96756;-68
2022/06/04 02:49:14;;;;;;;6.87;5.00;;;;;;;16.37;55.51;100197.25;30978183;28;96685;-68
2022/06/04 03:04:15;;;;;;;6.77;5.70;;;;;;;16.47;55.31;100191.47;30976673;28;96733;-68
2022/06/04 03:19:16;;;;;;;8.63;5.57;;;;;;;16.30;57.48;100182.19;30986114;28;97068;-69
2022/06/04 03:34:16;;;;;;;7.43;5.68;;;;;;;16.00;60.17;100185.28;30995452;28;96922;-68
2022/06/04 03:49:16;;;;;;;9.85;6.38;;;;;;;15.94;62.83;100199.53;30992289;28;96666;-69
2022/06/04 04:04:17;;;;;;;10.48;6.13;;;;;;;15.86;64.97;100201.38;30991786;28;96782;-71
2022/06/04 04:19:17;;;;;;;9.35;7.60;;;;;;;15.88;65.69;100209.25;30989062;28;97716;-69
2022/06/04 04:34:17;;;;;;;10.13;7.30;;;;;;;15.88;66.00;100218.16;30986821;28;96808;-68
2022/06/04 04:49:18;;;;;;;9.93;7.28;;;;;;;15.76;66.53;100248.44;30985986;28;96892;-68
2022/06/04 05:04:19;;;;;;;13.50;8.53;;;;;;;15.20;69.16;100280.66;30985828;28;96734;-69
2022/06/04 05:19:19;;;;;;;10.45;8.07;;;;;;;15.21;71.11;100306.47;30982862;28;97535;-67
2022/06/04 05:34:20;;;;;;;12.07;9.13;;;;;;;15.42;72.13;100317.31;30982325;28;96667;-67
2022/06/04 05:49:21;;;;;;;13.43;10.05;;;;;;;15.87;72.75;100332.00;30982456;28;97687;-68
2022/06/04 06:04:22;;;;;;;14.52;10.55;;;;;;;16.30;72.91;100325.47;30980616;28;96774;-67
2022/06/04 06:19:23;;;;;;;13.17;10.07;;;;;;;17.03;72.71;100318.47;30977852;28;96809;-67
2022/06/04 06:34:24;;;;;;;12.60;9.82;;;;;;;17.65;71.49;100302.75;30973747;28;99111;-68
2022/06/04 06:49:27;;;;;;;12.03;9.30;;;;;;;17.91;71.38;100323.38;30973908;28;96798;-67
2022/06/04 07:04:28;;;;;;;12.47;10.43;;;;;;;18.07;70.72;100313.09;30991310;28;98087;-67
2022/06/04 07:19:28;;;;;;;8.87;7.90;;;;;;;18.15;69.83;100315.56;30968620;28;96856;-69
2022/06/04 07:34:29;;;;;;;10.75;8.70;;;;;;;18.13;69.69;100306.88;30968719;28;97676;-71
2022/06/04 07:49:30;;;;;;;12.98;9.63;;;;;;;18.40;68.84;100304.00;30960815;28;97241;-70
2022/06/04 08:04:30;;;;;;;11.25;9.20;;;;;;;18.97;67.69;100309.31;30968123;28;109784;-70
2022/06/04 08:19:32;;;;;;;11.95;9.13;;;;;;;20.03;65.64;100319.13;30963546;28;97086;-68
2022/06/04 08:34:33;;;;;;;8.50;7.23;;;;;;;21.38;62.43;100315.81;30978638;28;97354;-71
2022/06/04 08:49:39;;;;;;;8.63;6.78;;;;;;;22.21;59.38;100351.66;30978729;28;96952;-70
2022/06/04 09:04:50;;;;;;;12.07;7.00;;;;;;;22.99;56.79;100354.59;30977191;28;97438;-69
2022/06/04 09:19:56;;;;;;;11.83;6.50;;;;;;;23.53;53.94;100364.03;30973570;28;97479;-68
2022/06/04 09:34:56;;;;;;;13.73;7.80;;;;;;;23.20;53.84;100384.78;30973584;28;97175;-68
2022/06/04 09:50:00;;;;;;;9.43;6.50;;;;;;;24.04;52.26;100379.34;30971558;28;96797;-68
2022/06/04 10:05:06;;;;;;;11.73;7.33;;;;;;;25.58;49.54;100396.97;30971715;28;97243;-64
2022/06/04 10:20:23;;;;;;;8.03;7.13;;;;;;;26.38;46.40;100401.34;30967485;28;96869;-63
2022/06/04 10:35:51;;;;;;;10.40;6.17;;;;;;;27.82;43.37;100370.25;30968601;28;97243;-67
2022/06/04 11:06:50;;;;;;;7.20;5.53;;;;;;;28.56;39.15;100410.63;30967383;28;97080;-64
2022/06/04 11:22:04;;;;;;;6.47;4.17;;;;;;;29.86;37.59;100409.09;30942266;28;97060;-64
2022/06/04 11:37:41;;;;;;;5.33;3.97;;;;;;;31.05;34.31;100408.16;30970064;28;96888;-67
2022/06/04 11:52:59;;;;;;;5.03;3.70;;;;;;;30.16;34.41;100401.56;30983430;28;96782;-66
2022/06/04 12:08:04;;;;;;;;;;;;;;;30.17;35.34;100394.97;30952711;28;97124;-65
2022/06/04 12:38:46;;;;;;;10.53;3.97;;;;;;;30.46;34.85;100399.50;30859581;28;96706;-67
2022/06/04 12:54:15;;;;;;;5.23;3.77;;;;;;;28.80;35.57;100428.00;30863851;28;97248;-69
2022/06/04 13:09:39;;;;;;;4.37;3.97;;;;;;;27.56;38.20;100411.41;30861844;28;97330;-73
2022/06/04 13:24:40;;;;;;;7.87;4.10;;;;;;;26.82;40.21;100432.84;30880153;28;98547;-65
2022/06/04 13:39:46;;;;;;;5.80;3.80;;;;;;;26.01;41.05;100429.59;31039798;28;97038;-64
2022/06/04 13:54:49;;;;;;;5.50;3.90;;;;;;;25.06;41.60;100447.59;31037442;28;97416;-71
2022/06/04 14:09:52;;;;;;;6.03;4.10;;;;;;;24.53;43.01;100441.91;31039341;28;99912;-64
2022/06/04 14:25:02;;;;;;;5.97;4.37;;;;;;;24.17;44.19;100455.16;31042482;28;96844;-64
2022/06/04 14:40:03;;;;;;;5.20;4.20;;;;;;;24.08;45.81;100446.59;31038760;28;96617;-64
2022/06/04 14:55:08;;;;;;;5.80;4.97;;;;;;;23.74;48.00;100435.84;31065991;28;96752;-64
2022/06/04 15:10:24;;;;;;;7.13;5.60;;;;;;;23.37;50.63;100414.66;31045728;28;96855;-71
2022/06/04 15:25:25;;;;;;;10.33;6.07;;;;;;;22.65;51.71;100433.34;30995553;28;96927;-69
2022/06/04 15:40:25;;;;;;;7.17;5.97;;;;;;;22.50;52.44;100411.34;30993446;28;97988;-68
2022/06/04 15:55:53;;;;;;;9.05;5.90;;;;;;;22.29;53.89;100443.53;30991854;28;96747;-69
2022/06/04 16:10:53;;;;;;;6.57;5.37;;;;;;;22.06;54.85;100443.56;30988516;28;96847;-67
2022/06/04 16:26:11;;;;;;;6.33;5.70;;;;;;;22.25;54.64;100449.66;30986957;28;97152;-70
2022/06/04 16:56:32;;;;;;;6.27;5.67;;;;;;;21.86;55.20;100455.66;30981888;28;97676;-70
2022/06/04 17:12:04;;;;;;;6.90;6.07;;;;;;;21.60;55.46;100475.97;30981617;28;97425;-68
2022/06/04 17:27:28;;;;;;;7.07;6.30;;;;;;;21.27;56.26;100456.50;30980774;28;97658;-70
2022/06/04 17:42:30;;;;;;;9.77;6.50;;;;;;;21.12;56.78;100448.81;30980151;28;96837;-68
2022/06/04 17:57:31;;;;;;;12.27;8.27;;;;;;;21.08;57.25;100465.78;30980104;28;96698;-66
2022/06/04 18:12:32;;;;;;;10.80;9.50;;;;;;;20.97;57.92;100489.09;30977261;28;97406;-69
2022/06/04 18:27:33;;;;;;;11.13;9.73;;;;;;;20.74;58.54;100468.19;30977153;28;96838;-69
2022/06/04 18:57:56;;;;;;;12.70;9.40;;;;;;;20.37;61.21;100492.59;30975172;28;97113;-68
2022/06/04 19:28:15;;;;;;;13.43;11.17;;;;;;;19.98;63.92;100532.56;30895197;28;97237;-75
2022/06/04 19:43:16;;;;;;;14.85;12.38;;;;;;;19.82;64.99;100556.44;30839598;28;104226;-69
2022/06/04 19:58:17;;;;;;;15.30;12.95;;;;;;;19.55;66.34;100566.63;30845672;28;97622;-72
2022/06/04 20:13:17;;;;;;;19.10;16.40;;;;;;;19.00;67.94;100580.72;30857882;28;96839;-69
2022/06/04 20:28:18;;;;;;;17.70;15.50;;;;;;;18.73;69.57;100583.53;30859836;28;97272;-69
2022/06/04 20:43:19;;;;;;;17.83;16.03;;;;;;;18.60;70.68;100592.50;30906882;28;96943;-68
2022/06/04 20:58:20;;;;;;;19.88;17.50;;;;;;;18.48;71.56;100603.13;30907911;28;101393;-69
2022/06/04 21:13:21;;;;;;;20.73;18.47;;;;;;;18.10;72.27;100607.38;30857444;28;97620;-68
2022/06/04 21:28:21;;;;;;;21.33;18.80;;;;;;;17.75;73.80;100617.50;30861234;28;96782;-70
2022/06/04 21:43:22;;;;;;;22.20;19.92;;;;;;;17.56;74.71;100611.94;30852429;28;96962;-68
2022/06/04 21:58:22;;;;;;;23.40;18.98;;;;;;;17.52;75.34;100613.38;30854225;28;112533;-68
2022/06/04 22:13:23;;;;;;;25.80;20.65;;;;;;;17.35;75.75;100602.16;30857619;28;97147;-68
2022/06/04 22:28:24;;;;;;;24.85;20.85;;;;;;;16.96;76.99;100613.66;30856114;28;96811;-68
2022/06/04 22:43:25;;;;;;;25.23;21.40;;;;;;;16.72;77.30;100615.81;30856280;28;97004;-68
2022/06/04 22:58:25;;;;;;;29.08;22.63;;;;;;;16.49;78.27;100622.31;30854971;28;97414;-70
2022/06/04 23:28:51;;;;;;;23.17;20.67;;;;;;;16.13;78.96;100623.34;30853148;28;96805;-68
2022/06/04 23:43:52;;;;;;;25.93;20.20;;;;;;;15.94;79.18;100626.72;30872867;28;97566;-69
2022/06/04 23:58:53;;;;;;;19.47;17.40;;;;;;;15.80;78.81;100640.06;30871652;28;96995;-71
